createdAt,value
2018-08-20T00:00:28.527Z,20.37
2018-08-20T00:02:55.832Z,15.50
2018-08-20T00:05:23.312Z,16.00
2018-08-20T00:07:50.647Z,16.73
2018-08-20T00:10:17.898Z,15.73
2018-08-20T00:12:45.244Z,16.60
2018-08-20T00:15:12.600Z,15.03
2018-08-20T00:17:39.869Z,15.97
2018-08-20T00:20:07.633Z,18.50
2018-08-20T00:22:34.882Z,19.73
2018-08-20T00:25:07.773Z,14.87
2018-08-20T00:27:35.050Z,21.50
2018-08-20T00:30:02.301Z,22.83
2018-08-20T00:32:29.561Z,17.50
2018-08-20T00:34:56.796Z,17.90
2018-08-20T00:37:24.052Z,13.93
2018-08-20T00:39:51.314Z,15.67
2018-08-20T00:42:18.636Z,21.63
2018-08-20T00:44:45.896Z,20.03
2018-08-20T00:47:13.169Z,20.53
2018-08-20T00:49:40.420Z,23.93
2018-08-20T00:52:07.668Z,23.70
2018-08-20T00:54:34.914Z,15.00
2018-08-20T00:57:02.165Z,13.97
2018-08-20T00:59:29.424Z,13.00
2018-08-20T01:01:56.750Z,15.27
2018-08-20T01:04:23.998Z,11.43
2018-08-20T01:06:51.253Z,17.53
2018-08-20T01:09:18.499Z,17.13
2018-08-20T01:11:45.753Z,13.40
2018-08-20T01:14:13.018Z,14.73
2018-08-20T01:16:40.277Z,14.63
2018-08-20T01:19:07.520Z,13.13
2018-08-20T01:21:34.845Z,12.03
2018-08-20T01:24:02.208Z,12.37
2018-08-20T01:26:29.444Z,12.47
2018-08-20T01:28:56.724Z,14.80
2018-08-20T01:31:23.960Z,12.50
2018-08-20T01:33:51.220Z,13.87
2018-08-20T01:36:18.470Z,15.87
2018-08-20T01:38:45.720Z,16.33
2018-08-20T01:41:13.200Z,15.30
2018-08-20T01:43:40.452Z,20.27
2018-08-20T01:46:07.781Z,19.57
2018-08-20T01:48:35.020Z,16.50
2018-08-20T01:51:02.276Z,15.30
2018-08-20T01:53:29.525Z,16.87
2018-08-20T01:55:56.791Z,16.70
2018-08-20T01:58:24.020Z,16.33
2018-08-20T02:00:51.312Z,18.40
2018-08-20T02:03:18.636Z,21.60
2018-08-20T02:05:45.904Z,19.20
2018-08-20T02:08:13.195Z,20.90
2018-08-20T02:10:40.488Z,21.63
2018-08-20T02:13:07.764Z,19.17
2018-08-20T02:15:35.072Z,20.90
2018-08-20T02:18:02.313Z,21.23
2018-08-20T02:20:29.608Z,19.80
2018-08-20T02:22:56.863Z,20.97
2018-08-20T02:25:24.123Z,18.70
2018-08-20T02:27:51.358Z,19.07
2018-08-20T02:30:18.720Z,17.00
2018-08-20T02:32:46.072Z,19.43
2018-08-20T02:35:13.318Z,20.57
2018-08-20T02:37:46.656Z,23.10
2018-08-20T02:40:14.615Z,20.43
2018-08-20T02:42:41.881Z,18.73
2018-08-20T02:45:11.228Z,19.50
2018-08-20T02:47:38.487Z,20.20
2018-08-20T02:50:06.309Z,19.00
2018-08-20T02:52:33.552Z,20.63
2018-08-20T02:55:00.869Z,18.40
2018-08-20T02:57:28.741Z,19.80
2018-08-20T02:59:55.983Z,20.00
2018-08-20T03:02:23.220Z,19.23
2018-08-20T03:04:50.469Z,19.83
2018-08-20T03:07:17.736Z,21.80
2018-08-20T03:09:44.996Z,22.40
2018-08-20T03:12:12.232Z,23.70
2018-08-20T03:14:39.480Z,20.37
2018-08-20T03:17:06.734Z,18.47
2018-08-20T03:19:34.000Z,19.93
2018-08-20T03:22:01.245Z,20.80
2018-08-20T03:24:28.584Z,19.90
2018-08-20T03:26:55.849Z,24.50
2018-08-20T03:29:23.100Z,21.33
2018-08-20T03:31:50.360Z,22.73
2018-08-20T03:34:17.596Z,22.07
2018-08-20T03:36:44.876Z,22.60
2018-08-20T03:39:12.103Z,20.50
2018-08-20T03:41:39.369Z,24.37
2018-08-20T03:44:06.624Z,22.67
2018-08-20T03:46:33.875Z,21.27
2018-08-20T03:49:01.124Z,22.13
2018-08-20T03:51:28.376Z,20.10
2018-08-20T03:53:55.631Z,19.57
2018-08-20T03:56:22.876Z,20.63
2018-08-20T03:58:50.139Z,19.70
2018-08-20T04:01:17.384Z,19.00
2018-08-20T04:03:44.640Z,17.27
2018-08-20T04:06:11.872Z,16.53
2018-08-20T04:08:39.143Z,14.70
2018-08-20T04:11:06.379Z,14.43
2018-08-20T04:13:33.697Z,15.13
2018-08-20T04:16:00.979Z,13.33
2018-08-20T04:18:28.244Z,15.67
2018-08-20T04:20:55.497Z,14.03
2018-08-20T04:23:22.752Z,14.07
2018-08-20T04:25:50.000Z,14.43
2018-08-20T04:28:17.252Z,14.17
2018-08-20T04:30:44.648Z,17.43
2018-08-20T04:33:11.857Z,14.40
2018-08-20T04:35:39.123Z,15.23
2018-08-20T04:38:06.372Z,15.23
2018-08-20T04:40:33.610Z,15.90
2018-08-20T04:43:00.856Z,17.03
2018-08-20T04:45:28.116Z,14.30
2018-08-20T04:47:55.401Z,14.20
2018-08-20T04:50:22.877Z,17.20
2018-08-20T04:52:50.173Z,15.13
2018-08-20T04:55:17.445Z,15.40
2018-08-20T04:57:44.703Z,18.27
2018-08-20T05:00:12.259Z,18.00
2018-08-20T05:02:39.607Z,17.93
2018-08-20T05:05:06.848Z,17.00
2018-08-20T05:07:34.535Z,16.57
2018-08-20T05:10:01.881Z,20.87
2018-08-20T05:12:29.047Z,17.33
2018-08-20T05:14:56.292Z,16.00
2018-08-20T05:17:23.557Z,17.73
2018-08-20T05:19:50.888Z,17.03
2018-08-20T05:22:18.118Z,16.30
2018-08-20T05:24:45.392Z,17.73
2018-08-20T05:27:12.677Z,16.63
2018-08-20T05:29:39.875Z,19.33
2018-08-20T05:32:07.255Z,19.27
2018-08-20T05:34:34.525Z,16.63
2018-08-20T05:37:01.819Z,17.43
2018-08-20T05:39:29.108Z,18.40
2018-08-20T05:41:56.368Z,17.70
2018-08-20T05:44:23.594Z,17.23
2018-08-20T05:46:50.856Z,16.73
2018-08-20T05:49:18.097Z,17.60
2018-08-20T05:51:45.365Z,13.90
2018-08-20T05:54:12.602Z,16.47
2018-08-20T05:56:39.856Z,20.17
2018-08-20T05:59:07.173Z,14.13
2018-08-20T06:01:34.359Z,16.47
2018-08-20T06:04:01.615Z,16.50
2018-08-20T06:06:28.848Z,12.63
2018-08-20T06:08:56.097Z,14.67
2018-08-20T06:11:23.376Z,13.00
2018-08-20T06:13:50.651Z,14.13
2018-08-20T06:16:17.896Z,18.17
2018-08-20T06:18:45.132Z,15.20
2018-08-20T06:21:12.406Z,18.47
2018-08-20T06:23:39.643Z,16.50
2018-08-20T06:26:06.896Z,19.33
2018-08-20T06:28:34.187Z,17.23
2018-08-20T06:31:01.419Z,21.63
2018-08-20T06:33:28.745Z,19.20
2018-08-20T06:35:55.980Z,18.30
2018-08-20T06:38:23.252Z,19.27
2018-08-20T06:40:50.516Z,21.90
2018-08-20T06:43:17.777Z,22.10
2018-08-20T06:45:45.017Z,17.33
2018-08-20T06:48:12.245Z,21.17
2018-08-20T06:50:39.521Z,21.33
2018-08-20T06:53:06.760Z,23.13
2018-08-20T06:55:34.018Z,25.77
2018-08-20T06:58:02.608Z,24.37
2018-08-20T07:00:30.522Z,21.80
2018-08-20T07:02:57.757Z,22.47
2018-08-20T07:05:25.030Z,27.60
2018-08-20T07:07:52.253Z,23.03
2018-08-20T07:10:19.501Z,24.53
2018-08-20T07:12:46.811Z,28.03
2018-08-20T07:15:15.096Z,24.60
2018-08-20T07:17:42.346Z,25.20
2018-08-20T07:20:10.545Z,28.10
2018-08-20T07:22:37.926Z,30.57
2018-08-20T07:25:05.208Z,26.67
2018-08-20T07:27:32.635Z,23.40
2018-08-20T07:29:59.927Z,23.83
2018-08-20T07:32:27.195Z,26.97
2018-08-20T07:34:54.416Z,24.03
2018-08-20T07:37:21.702Z,23.97
2018-08-20T07:39:49.033Z,26.20
2018-08-20T07:42:16.324Z,26.67
2018-08-20T07:44:44.305Z,19.17
2018-08-20T07:47:11.744Z,22.40
2018-08-20T07:49:39.021Z,23.40
2018-08-20T07:52:06.622Z,26.33
2018-08-20T07:54:34.011Z,24.07
2018-08-20T07:57:01.342Z,26.00
2018-08-20T07:59:28.636Z,27.00
2018-08-20T08:01:55.883Z,22.73
2018-08-20T08:04:23.132Z,26.93
2018-08-20T08:06:50.374Z,23.13
2018-08-20T08:09:17.653Z,20.20
2018-08-20T08:11:44.961Z,25.90
2018-08-20T08:14:12.236Z,26.87
2018-08-20T08:16:39.505Z,19.57
2018-08-20T08:19:06.729Z,25.80
2018-08-20T08:21:34.271Z,22.17
2018-08-20T08:24:02.172Z,20.20
2018-08-20T08:26:29.472Z,19.97
2018-08-20T08:28:56.656Z,19.83
2018-08-20T08:31:23.917Z,22.97
2018-08-20T08:33:51.169Z,25.23
2018-08-20T08:36:18.439Z,25.77
2018-08-20T08:38:45.702Z,18.87
2018-08-20T08:41:12.963Z,25.07
2018-08-20T08:43:40.275Z,21.03
2018-08-20T08:46:07.517Z,20.83
2018-08-20T08:48:34.767Z,19.57
2018-08-20T08:51:02.054Z,22.63
2018-08-20T08:53:29.295Z,20.10
2018-08-20T08:55:56.596Z,21.70
2018-08-20T08:58:23.876Z,24.90
2018-08-20T09:00:51.133Z,23.43
2018-08-20T09:03:18.380Z,25.70
2018-08-20T09:05:45.608Z,25.80
2018-08-20T09:08:12.902Z,26.37
2018-08-20T09:10:40.220Z,23.03
2018-08-20T09:13:07.529Z,24.77
2018-08-20T09:15:34.781Z,27.73
2018-08-20T09:18:02.034Z,27.70
2018-08-20T09:20:29.389Z,29.17
2018-08-20T09:22:56.695Z,25.60
2018-08-20T09:25:23.953Z,23.50
2018-08-20T09:27:51.210Z,26.40
2018-08-20T09:30:22.137Z,27.70
2018-08-20T09:32:49.380Z,29.83
2018-08-20T09:35:16.727Z,25.90
2018-08-20T09:37:44.013Z,23.80
2018-08-20T09:40:11.526Z,31.63
2018-08-20T09:42:39.877Z,31.97
2018-08-20T09:45:07.191Z,30.43
2018-08-20T09:47:34.793Z,35.43
2018-08-20T09:50:02.052Z,30.20
2018-08-20T09:52:29.593Z,29.97
2018-08-20T09:54:56.935Z,35.90
2018-08-20T09:57:24.368Z,32.00
2018-08-20T09:59:51.632Z,29.83
2018-08-20T10:02:18.899Z,32.30
2018-08-20T10:04:46.254Z,38.37
2018-08-20T10:07:13.584Z,28.97
2018-08-20T10:09:40.908Z,34.60
2018-08-20T10:12:08.141Z,29.10
2018-08-20T10:14:35.459Z,30.07
2018-08-20T10:17:02.692Z,30.13
2018-08-20T10:19:30.214Z,29.33
2018-08-20T10:21:57.499Z,25.80
2018-08-20T10:24:24.780Z,27.80
2018-08-20T10:26:52.044Z,24.97
2018-08-20T10:29:19.279Z,27.70
2018-08-20T10:31:46.553Z,30.50
2018-08-20T10:34:13.793Z,28.93
2018-08-20T10:36:41.405Z,32.67
2018-08-20T10:39:09.643Z,34.17
2018-08-20T10:41:36.905Z,35.87
2018-08-20T10:44:04.139Z,26.93
2018-08-20T10:46:31.371Z,27.37
2018-08-20T10:48:58.664Z,28.70
2018-08-20T10:51:26.188Z,28.70
2018-08-20T10:53:53.877Z,30.20
2018-08-20T10:56:21.200Z,25.70
2018-08-20T10:58:48.450Z,23.60
2018-08-20T11:01:15.819Z,23.73
2018-08-20T11:03:47.049Z,24.30
2018-08-20T11:06:14.348Z,23.37
2018-08-20T11:08:41.645Z,22.20
2018-08-20T11:11:08.960Z,26.80
2018-08-20T11:13:36.231Z,27.53
2018-08-20T11:16:03.490Z,26.10
2018-08-20T11:18:30.885Z,25.40
2018-08-20T11:20:58.091Z,26.03
2018-08-20T11:23:25.349Z,22.87
2018-08-20T11:25:52.608Z,24.67
2018-08-20T11:28:19.993Z,20.77
2018-08-20T11:30:47.267Z,23.13
2018-08-20T11:33:14.531Z,24.43
2018-08-20T11:35:42.677Z,24.27
2018-08-20T11:38:09.933Z,20.20
2018-08-20T11:40:37.224Z,21.87
2018-08-20T11:43:04.813Z,18.50
2018-08-20T11:45:32.059Z,21.50
2018-08-20T11:47:59.322Z,21.47
2018-08-20T11:50:26.597Z,20.73
2018-08-20T11:52:53.874Z,21.13
2018-08-20T11:55:21.133Z,23.33
2018-08-20T11:57:48.382Z,22.33
2018-08-20T12:00:15.654Z,22.97
2018-08-20T12:02:42.979Z,21.07
2018-08-20T12:05:10.638Z,23.17
2018-08-20T12:07:37.936Z,23.90
2018-08-20T12:10:06.198Z,20.63
2018-08-20T12:12:33.493Z,26.33
2018-08-20T12:15:00.750Z,19.57
2018-08-20T12:17:28.073Z,24.13
2018-08-20T12:19:55.374Z,24.80
2018-08-20T12:22:22.677Z,24.30
2018-08-20T12:24:49.917Z,21.40
2018-08-20T12:27:17.181Z,26.53
2018-08-20T12:29:44.438Z,22.70
2018-08-20T12:32:11.676Z,22.10
2018-08-20T12:34:38.977Z,20.80
2018-08-20T12:37:06.241Z,21.57
2018-08-20T12:39:33.551Z,20.40
2018-08-20T12:42:00.809Z,20.70
2018-08-20T12:44:28.045Z,22.37
2018-08-20T12:46:55.311Z,22.40
2018-08-20T12:49:22.594Z,23.20
2018-08-20T12:51:49.888Z,18.27
2018-08-20T12:54:17.151Z,15.90
2018-08-20T12:56:44.415Z,13.60
2018-08-20T12:59:11.648Z,15.80
2018-08-20T13:01:38.936Z,15.10
2018-08-20T13:04:06.164Z,17.60
2018-08-20T13:06:33.460Z,28.50
2018-08-20T13:09:00.802Z,22.27
2018-08-20T13:11:28.033Z,24.40
2018-08-20T13:13:55.322Z,25.50
2018-08-20T13:16:22.621Z,30.13
2018-08-20T13:18:49.869Z,27.00
2018-08-20T13:21:17.075Z,28.07
2018-08-20T13:23:44.348Z,27.17
2018-08-20T13:26:11.652Z,26.80
2018-08-20T13:28:38.909Z,21.47
2018-08-20T13:31:06.248Z,26.17
2018-08-20T13:33:33.528Z,22.80
2018-08-20T13:36:00.796Z,22.30
2018-08-20T13:38:28.378Z,23.20
2018-08-20T13:40:55.669Z,22.63
2018-08-20T13:43:22.941Z,24.00
2018-08-20T13:45:50.196Z,24.27
2018-08-20T13:48:17.449Z,21.57
2018-08-20T13:50:44.794Z,20.53
2018-08-20T13:53:12.353Z,20.83
2018-08-20T13:55:39.605Z,22.80
2018-08-20T13:58:06.874Z,19.37
2018-08-20T14:00:34.129Z,19.57
2018-08-20T14:03:01.397Z,18.60
2018-08-20T14:05:28.657Z,18.23
2018-08-20T14:07:55.956Z,18.10
2018-08-20T14:10:23.233Z,24.07
2018-08-20T14:12:50.496Z,18.83
2018-08-20T14:15:17.809Z,19.40
2018-08-20T14:17:45.105Z,20.03
2018-08-20T14:20:13.575Z,18.90
2018-08-20T14:22:41.424Z,16.33
2018-08-20T14:25:08.807Z,15.97
2018-08-20T14:27:36.045Z,15.23
2018-08-20T14:30:03.689Z,16.27
2018-08-20T14:32:31.262Z,18.27
2018-08-20T14:34:58.894Z,15.30
2018-08-20T14:37:26.173Z,18.10
2018-08-20T14:39:53.453Z,16.30
2018-08-20T14:42:20.704Z,18.00
2018-08-20T14:44:47.988Z,21.13
2018-08-20T14:47:15.268Z,19.67
2018-08-20T14:49:42.533Z,16.53
2018-08-20T14:52:10.097Z,15.10
2018-08-20T14:54:37.849Z,13.10
2018-08-20T14:57:05.369Z,14.70
2018-08-20T14:59:32.629Z,13.10
2018-08-20T15:01:59.939Z,13.30
2018-08-20T15:04:27.182Z,7.83
2018-08-20T15:07:12.398Z,7.20
2018-08-20T15:09:39.723Z,5.10
2018-08-20T15:12:07.017Z,4.87
2018-08-20T15:14:34.338Z,4.97
2018-08-20T15:17:01.631Z,3.13
2018-08-20T15:19:28.884Z,3.00
2018-08-20T15:21:56.151Z,3.30
2018-08-20T15:24:23.405Z,2.27
2018-08-20T15:26:50.741Z,4.30
2018-08-20T15:29:18.845Z,6.00
2018-08-20T15:31:46.290Z,3.70
2018-08-20T15:34:13.529Z,7.93
2018-08-20T15:36:41.113Z,8.47
2018-08-20T15:39:08.869Z,4.17
2018-08-20T15:41:36.574Z,4.57
2018-08-20T15:44:04.047Z,3.50
2018-08-20T15:46:31.660Z,3.03
2018-08-20T15:48:58.923Z,6.43
2018-08-20T15:51:26.223Z,4.93
2018-08-20T15:53:53.491Z,2.23
2018-08-20T15:56:20.746Z,3.57
2018-08-20T15:58:48.022Z,2.40
2018-08-20T16:01:15.254Z,3.27
2018-08-20T16:03:42.517Z,2.43
2018-08-20T16:06:09.841Z,4.30
2018-08-20T16:08:37.135Z,3.63
2018-08-20T16:11:04.414Z,1.60
2018-08-20T16:13:31.681Z,1.83
2018-08-20T16:15:58.965Z,2.13
2018-08-20T16:18:26.217Z,2.90
2018-08-20T16:20:53.494Z,1.87
2018-08-20T16:23:20.928Z,2.97
2018-08-20T16:25:48.242Z,1.20
2018-08-20T16:28:15.608Z,2.03
2018-08-20T16:30:42.860Z,1.70
2018-08-20T16:33:10.168Z,2.70
2018-08-20T16:35:37.444Z,2.40
2018-08-20T16:38:04.689Z,2.37
2018-08-20T16:40:31.942Z,3.47
2018-08-20T16:42:59.209Z,1.97
2018-08-20T16:45:26.525Z,1.97
2018-08-20T16:47:53.755Z,2.53
2018-08-20T16:50:21.029Z,2.90
2018-08-20T16:52:48.305Z,2.20
2018-08-20T16:55:15.589Z,2.20
2018-08-20T16:57:42.854Z,2.10
2018-08-20T17:00:11.048Z,3.10
2018-08-20T17:02:39.633Z,3.10
2018-08-20T17:05:07.322Z,2.10
2018-08-20T17:07:34.610Z,2.63
2018-08-20T17:10:01.859Z,2.70
2018-08-20T17:12:29.144Z,3.03
2018-08-20T17:14:56.457Z,3.70
2018-08-20T17:17:23.757Z,2.70
2018-08-20T17:19:51.022Z,4.50
2018-08-20T17:22:18.361Z,6.67
2018-08-20T17:24:45.762Z,3.50
2018-08-20T17:27:13.032Z,5.83
2018-08-20T17:29:40.305Z,4.53
2018-08-20T17:32:08.600Z,3.87
2018-08-20T17:34:38.356Z,3.37
2018-08-20T17:37:05.652Z,5.33
2018-08-20T17:39:32.907Z,3.07
2018-08-20T17:42:00.192Z,3.03
2018-08-20T17:44:27.524Z,5.33
2018-08-20T17:46:54.881Z,3.80
2018-08-20T17:49:27.509Z,4.30
2018-08-20T17:51:54.822Z,4.23
2018-08-20T17:54:22.085Z,6.03
2018-08-20T17:56:49.361Z,4.83
2018-08-20T17:59:16.601Z,4.17
2018-08-20T18:01:43.902Z,5.03
2018-08-20T18:04:11.154Z,4.30
2018-08-20T18:06:45.088Z,5.43
2018-08-20T18:09:12.554Z,3.83
2018-08-20T18:11:59.271Z,3.17
2018-08-20T18:14:26.772Z,5.17
2018-08-20T18:16:54.057Z,4.70
2018-08-20T18:19:21.330Z,4.03
2018-08-20T18:21:48.884Z,8.63
2018-08-20T18:24:17.756Z,3.93
2018-08-20T18:26:47.484Z,2.17
2018-08-20T18:29:14.826Z,4.03
2018-08-20T18:31:42.099Z,1.90
2018-08-20T18:34:09.433Z,2.37
2018-08-20T18:36:36.756Z,3.93
2018-08-20T18:39:09.585Z,1.67
2018-08-20T18:42:14.669Z,1.20
2018-08-20T18:44:41.941Z,1.20
2018-08-20T18:47:10.114Z,1.73
2018-08-20T18:49:39.090Z,1.43
2018-08-20T18:52:11.792Z,1.57
2018-08-20T18:54:43.669Z,1.00
2018-08-20T18:57:15.264Z,1.10
2018-08-20T18:59:42.539Z,1.43
2018-08-20T19:02:11.979Z,0.80
2018-08-20T19:04:43.558Z,1.20
2018-08-20T19:07:12.291Z,1.53
2018-08-20T19:09:40.460Z,1.50
2018-08-20T19:12:08.202Z,4.10
2018-08-20T19:14:35.505Z,1.80
2018-08-20T19:17:03.456Z,2.10
2018-08-20T19:19:35.046Z,1.47
2018-08-20T19:22:02.545Z,0.90
2018-08-20T19:24:34.138Z,5.93
2018-08-20T19:27:05.793Z,1.37
2018-08-20T19:29:33.085Z,1.40
2018-08-20T19:32:00.368Z,1.83
2018-08-20T19:34:27.671Z,1.90
2018-08-20T19:36:54.984Z,1.43
2018-08-20T19:39:22.306Z,4.20
2018-08-20T19:41:49.569Z,2.57
2018-08-20T19:44:16.842Z,2.57
2018-08-20T19:46:44.196Z,4.63
2018-08-20T19:49:13.753Z,3.37
2018-08-20T19:51:42.204Z,2.60
2018-08-20T19:54:10.781Z,3.07
2018-08-20T19:56:38.386Z,2.67
2018-08-20T19:59:05.786Z,6.40
2018-08-20T20:01:33.089Z,3.97
2018-08-20T20:04:00.447Z,5.30
2018-08-20T20:06:27.743Z,5.27
2018-08-20T20:08:54.997Z,3.40
2018-08-20T20:11:29.477Z,5.17
2018-08-20T20:13:57.412Z,2.93
2018-08-20T20:16:25.153Z,3.60
2018-08-20T20:18:52.713Z,3.20
2018-08-20T20:21:20.613Z,3.63
2018-08-20T20:23:47.917Z,6.30
2018-08-20T20:26:15.313Z,4.50
2018-08-20T20:28:42.628Z,5.37
2018-08-20T20:31:09.923Z,5.03
2018-08-20T20:33:37.209Z,3.80
2018-08-20T20:36:07.366Z,3.60
2018-08-20T20:38:34.646Z,6.20
2018-08-20T20:41:01.927Z,3.80
2018-08-20T20:43:37.625Z,5.13
2018-08-20T20:46:05.301Z,3.93
2018-08-20T20:48:32.581Z,4.10
2018-08-20T20:50:59.949Z,3.67
2018-08-20T20:53:27.206Z,3.63
2018-08-20T20:55:54.666Z,4.50
2018-08-20T20:58:28.969Z,5.13
2018-08-20T21:00:56.251Z,3.50
2018-08-20T21:03:24.016Z,3.50
2018-08-20T21:05:51.302Z,4.17
2018-08-20T21:08:18.601Z,3.57
2018-08-20T21:10:48.887Z,3.67
2018-08-20T21:13:16.233Z,3.00
2018-08-20T21:15:46.564Z,3.50
2018-08-20T21:18:13.877Z,3.17
2018-08-20T21:20:41.196Z,6.13
2018-08-20T21:23:08.468Z,3.40
2018-08-20T21:25:35.704Z,3.23
2018-08-20T21:28:02.953Z,2.80
2018-08-20T21:30:34.658Z,2.50
2018-08-20T21:33:02.413Z,5.27
2018-08-20T21:35:29.706Z,2.87
2018-08-20T21:37:57.361Z,4.40
2018-08-20T21:40:29.915Z,2.83
2018-08-20T21:42:57.280Z,3.30
2018-08-20T21:45:24.579Z,3.77
2018-08-20T21:47:51.935Z,3.23
2018-08-20T21:50:19.475Z,3.50
2018-08-20T21:52:47.124Z,3.27
2018-08-20T21:55:14.436Z,3.27
2018-08-20T21:57:47.172Z,3.47
2018-08-20T22:00:15.234Z,2.77
2018-08-20T22:02:47.003Z,2.97
2018-08-20T22:05:14.309Z,3.00
2018-08-20T22:07:41.641Z,2.47
2018-08-20T22:10:09.011Z,4.00
2018-08-20T22:12:36.256Z,2.37
2018-08-20T22:15:03.836Z,2.37
2018-08-20T22:17:31.380Z,2.50
2018-08-20T22:19:59.340Z,3.47
2018-08-20T22:22:27.562Z,2.40
2018-08-20T22:24:59.250Z,3.17
2018-08-20T22:27:26.847Z,2.80
2018-08-20T22:29:54.117Z,2.70
2018-08-20T22:32:21.375Z,2.60
2018-08-20T22:34:48.628Z,2.40
2018-08-20T22:37:17.071Z,3.50
2018-08-20T22:39:46.042Z,2.43
2018-08-20T22:42:13.278Z,2.43
2018-08-20T22:44:40.547Z,2.23
2018-08-20T22:47:07.988Z,2.57
2018-08-20T22:49:35.272Z,3.70
2018-08-20T22:52:02.604Z,1.70
2018-08-20T22:54:29.888Z,2.10
2018-08-20T22:56:57.152Z,2.00
2018-08-20T22:59:24.377Z,2.37
2018-08-20T23:01:51.632Z,2.00
2018-08-20T23:04:18.868Z,2.20
2018-08-20T23:06:46.160Z,3.33
2018-08-20T23:09:26.072Z,1.90
2018-08-20T23:11:53.628Z,2.60
2018-08-20T23:14:20.880Z,2.27
2018-08-20T23:16:48.528Z,1.70
2018-08-20T23:19:15.805Z,2.50
2018-08-20T23:21:44.400Z,2.20
2018-08-20T23:24:12.488Z,1.73
2018-08-20T23:26:39.839Z,2.40
2018-08-20T23:29:07.122Z,5.70
2018-08-20T23:31:34.341Z,2.07
2018-08-20T23:34:01.601Z,2.23
2018-08-20T23:36:28.985Z,2.50
2018-08-20T23:38:56.241Z,2.77
2018-08-20T23:41:23.511Z,2.00
2018-08-20T23:44:01.321Z,2.47
2018-08-20T23:46:38.344Z,2.37
2018-08-20T23:49:05.633Z,3.20
2018-08-20T23:51:32.863Z,3.30
2018-08-20T23:54:00.241Z,2.10
2018-08-20T23:56:27.517Z,2.20
2018-08-20T23:58:54.740Z,2.50
